sensor_id;sensor_type;location;lat;lon;timestamp;P1;durP1;ratioP1;P2;durP2;ratioP2
23586;SDS011;11971;51.148;4.104;2023-06-10T00:01:01;106.40;;;46.85;;
23586;SDS011;11971;51.148;4.104;2023-06-10T00:03:30;111.17;;;46.83;;
23586;SDS011;11971;51.148;4.104;2023-06-10T00:06:00;112.63;;;46.60;;
23586;SDS011;11971;51.148;4.104;2023-06-10T00:08:27;106.55;;;46.03;;
23586;SDS011;11971;51.148;4.104;2023-06-10T00:10:56;110.55;;;46.33;;
23586;SDS011;11971;51.148;4.104;2023-06-10T00:13:26;106.85;;;46.30;;
23586;SDS011;11971;51.148;4.104;2023-06-10T00:15:54;108.07;;;46.30;;
23586;SDS011;11971;51.148;4.104;2023-06-10T00:18:30;108.57;;;45.67;;
23586;SDS011;11971;51.148;4.104;2023-06-10T00:21:04;107.47;;;46.83;;
23586;SDS011;11971;51.148;4.104;2023-06-10T00:23:44;109.82;;;47.00;;
23586;SDS011;11971;51.148;4.104;2023-06-10T00:26:18;110.60;;;47.05;;
23586;SDS011;11971;51.148;4.104;2023-06-10T00:28:51;107.18;;;46.20;;
23586;SDS011;11971;51.148;4.104;2023-06-10T00:31:18;113.53;;;46.70;;
23586;SDS011;11971;51.148;4.104;2023-06-10T00:33:48;109.03;;;46.47;;
23586;SDS011;11971;51.148;4.104;2023-06-10T00:36:16;106.28;;;46.22;;
23586;SDS011;11971;51.148;4.104;2023-06-10T00:38:45;111.10;;;46.15;;
23586;SDS011;11971;51.148;4.104;2023-06-10T00:41:15;110.38;;;46.78;;
23586;SDS011;11971;51.148;4.104;2023-06-10T00:43:42;109.68;;;46.15;;
23586;SDS011;11971;51.148;4.104;2023-06-10T00:46:11;108.43;;;46.08;;
23586;SDS011;11971;51.148;4.104;2023-06-10T00:48:38;109.78;;;46.83;;
23586;SDS011;11971;51.148;4.104;2023-06-10T00:51:05;107.72;;;46.38;;
23586;SDS011;11971;51.148;4.104;2023-06-10T00:53:34;108.65;;;46.75;;
23586;SDS011;11971;51.148;4.104;2023-06-10T00:56:04;110.07;;;46.83;;
23586;SDS011;11971;51.148;4.104;2023-06-10T00:58:34;108.18;;;46.72;;
23586;SDS011;11971;51.148;4.104;2023-06-10T01:01:01;107.78;;;46.38;;
23586;SDS011;11971;51.148;4.104;2023-06-10T01:03:31;109.13;;;46.60;;
23586;SDS011;11971;51.148;4.104;2023-06-10T01:06:05;106.95;;;45.67;;
23586;SDS011;11971;51.148;4.104;2023-06-10T01:08:35;111.40;;;46.55;;
23586;SDS011;11971;51.148;4.104;2023-06-10T01:11:07;110.15;;;46.95;;
23586;SDS011;11971;51.148;4.104;2023-06-10T01:13:35;106.70;;;46.63;;
23586;SDS011;11971;51.148;4.104;2023-06-10T01:16:02;108.35;;;46.45;;
23586;SDS011;11971;51.148;4.104;2023-06-10T01:21:27;109.13;;;46.78;;
23586;SDS011;11971;51.148;4.104;2023-06-10T01:24:02;113.20;;;47.17;;
23586;SDS011;11971;51.148;4.104;2023-06-10T01:26:33;109.57;;;46.50;;
23586;SDS011;11971;51.148;4.104;2023-06-10T01:29:07;108.85;;;47.00;;
23586;SDS011;11971;51.148;4.104;2023-06-10T01:31:38;108.82;;;46.50;;
23586;SDS011;11971;51.148;4.104;2023-06-10T01:34:10;108.85;;;47.05;;
23586;SDS011;11971;51.148;4.104;2023-06-10T01:36:39;112.82;;;46.97;;
23586;SDS011;11971;51.148;4.104;2023-06-10T01:39:07;110.32;;;47.20;;
23586;SDS011;11971;51.148;4.104;2023-06-10T01:41:34;108.53;;;47.28;;
23586;SDS011;11971;51.148;4.104;2023-06-10T01:44:01;110.47;;;46.33;;
23586;SDS011;11971;51.148;4.104;2023-06-10T01:46:28;112.82;;;46.45;;
23586;SDS011;11971;51.148;4.104;2023-06-10T01:48:58;111.28;;;46.78;;
23586;SDS011;11971;51.148;4.104;2023-06-10T01:51:26;107.87;;;46.80;;
23586;SDS011;11971;51.148;4.104;2023-06-10T01:53:55;107.20;;;46.08;;
23586;SDS011;11971;51.148;4.104;2023-06-10T01:56:21;107.57;;;46.87;;
23586;SDS011;11971;51.148;4.104;2023-06-10T01:58:48;110.93;;;46.63;;
23586;SDS011;11971;51.148;4.104;2023-06-10T02:01:15;110.18;;;47.08;;
23586;SDS011;11971;51.148;4.104;2023-06-10T02:03:44;111.05;;;47.25;;
23586;SDS011;11971;51.148;4.104;2023-06-10T02:06:11;108.45;;;46.58;;
23586;SDS011;11971;51.148;4.104;2023-06-10T02:08:38;106.28;;;46.85;;
23586;SDS011;11971;51.148;4.104;2023-06-10T02:11:08;110.15;;;46.88;;
23586;SDS011;11971;51.148;4.104;2023-06-10T02:16:01;109.95;;;46.38;;
23586;SDS011;11971;51.148;4.104;2023-06-10T02:18:28;108.30;;;47.00;;
23586;SDS011;11971;51.148;4.104;2023-06-10T02:20:55;107.45;;;46.60;;
23586;SDS011;11971;51.148;4.104;2023-06-10T02:23:22;107.63;;;46.60;;
23586;SDS011;11971;51.148;4.104;2023-06-10T02:25:49;107.70;;;46.88;;
23586;SDS011;11971;51.148;4.104;2023-06-10T02:28:17;108.80;;;47.20;;
23586;SDS011;11971;51.148;4.104;2023-06-10T02:30:47;109.35;;;47.25;;
23586;SDS011;11971;51.148;4.104;2023-06-10T02:33:14;112.53;;;46.88;;
23586;SDS011;11971;51.148;4.104;2023-06-10T02:35:42;106.88;;;46.60;;
23586;SDS011;11971;51.148;4.104;2023-06-10T02:38:11;110.28;;;46.63;;
23586;SDS011;11971;51.148;4.104;2023-06-10T02:40:37;108.78;;;47.38;;
23586;SDS011;11971;51.148;4.104;2023-06-10T02:43:10;110.85;;;47.00;;
23586;SDS011;11971;51.148;4.104;2023-06-10T02:49:26;106.75;;;46.63;;
23586;SDS011;11971;51.148;4.104;2023-06-10T02:51:55;108.85;;;47.03;;
23586;SDS011;11971;51.148;4.104;2023-06-10T02:54:22;111.13;;;47.08;;
23586;SDS011;11971;51.148;4.104;2023-06-10T02:56:52;109.47;;;46.45;;
23586;SDS011;11971;51.148;4.104;2023-06-10T02:59:21;110.32;;;46.78;;
23586;SDS011;11971;51.148;4.104;2023-06-10T03:01:48;110.35;;;47.03;;
23586;SDS011;11971;51.148;4.104;2023-06-10T03:04:15;105.32;;;46.25;;
23586;SDS011;11971;51.148;4.104;2023-06-10T03:06:48;107.18;;;46.83;;
23586;SDS011;11971;51.148;4.104;2023-06-10T03:09:16;108.65;;;47.50;;
23586;SDS011;11971;51.148;4.104;2023-06-10T03:11:45;112.10;;;47.30;;
23586;SDS011;11971;51.148;4.104;2023-06-10T03:14:16;111.72;;;47.13;;
23586;SDS011;11971;51.148;4.104;2023-06-10T03:16:44;109.70;;;47.55;;
23586;SDS011;11971;51.148;4.104;2023-06-10T03:19:11;107.82;;;47.30;;
23586;SDS011;11971;51.148;4.104;2023-06-10T03:21:38;110.97;;;47.85;;
23586;SDS011;11971;51.148;4.104;2023-06-10T03:24:08;111.65;;;48.55;;
23586;SDS011;11971;51.148;4.104;2023-06-10T03:26:37;112.22;;;47.85;;
23586;SDS011;11971;51.148;4.104;2023-06-10T03:29:06;109.93;;;47.50;;
23586;SDS011;11971;51.148;4.104;2023-06-10T03:31:37;111.85;;;47.50;;
23586;SDS011;11971;51.148;4.104;2023-06-10T03:34:07;113.25;;;47.45;;
23586;SDS011;11971;51.148;4.104;2023-06-10T03:36:38;108.70;;;47.42;;
23586;SDS011;11971;51.148;4.104;2023-06-10T03:39:22;115.32;;;47.85;;
23586;SDS011;11971;51.148;4.104;2023-06-10T03:41:50;108.82;;;47.47;;
23586;SDS011;11971;51.148;4.104;2023-06-10T03:44:17;109.10;;;47.33;;
23586;SDS011;11971;51.148;4.104;2023-06-10T03:46:44;106.97;;;47.20;;
23586;SDS011;11971;51.148;4.104;2023-06-10T03:49:11;112.50;;;47.72;;
23586;SDS011;11971;51.148;4.104;2023-06-10T03:51:38;107.18;;;47.35;;
23586;SDS011;11971;51.148;4.104;2023-06-10T03:54:05;110.15;;;47.65;;
23586;SDS011;11971;51.148;4.104;2023-06-10T03:56:47;116.22;;;48.05;;
23586;SDS011;11971;51.148;4.104;2023-06-10T03:59:21;109.85;;;47.95;;
23586;SDS011;11971;51.148;4.104;2023-06-10T04:02:23;109.10;;;47.13;;
23586;SDS011;11971;51.148;4.104;2023-06-10T04:10:17;107.82;;;46.90;;
23586;SDS011;11971;51.148;4.104;2023-06-10T04:12:56;108.20;;;47.53;;
23586;SDS011;11971;51.148;4.104;2023-06-10T04:15:23;111.05;;;47.80;;
23586;SDS011;11971;51.148;4.104;2023-06-10T04:17:50;108.72;;;47.42;;
23586;SDS011;11971;51.148;4.104;2023-06-10T04:20:20;110.38;;;47.70;;
23586;SDS011;11971;51.148;4.104;2023-06-10T04:25:39;111.22;;;48.13;;
23586;SDS011;11971;51.148;4.104;2023-06-10T04:28:08;112.97;;;48.85;;
23586;SDS011;11971;51.148;4.104;2023-06-10T04:30:36;110.95;;;47.97;;
23586;SDS011;11971;51.148;4.104;2023-06-10T04:33:16;109.85;;;47.88;;
23586;SDS011;11971;51.148;4.104;2023-06-10T04:35:43;108.88;;;47.40;;
23586;SDS011;11971;51.148;4.104;2023-06-10T04:38:12;111.43;;;47.10;;
23586;SDS011;11971;51.148;4.104;2023-06-10T04:40:39;114.88;;;48.28;;
23586;SDS011;11971;51.148;4.104;2023-06-10T04:43:13;111.18;;;48.00;;
23586;SDS011;11971;51.148;4.104;2023-06-10T04:45:56;109.13;;;47.70;;
23586;SDS011;11971;51.148;4.104;2023-06-10T04:48:26;111.13;;;47.60;;
23586;SDS011;11971;51.148;4.104;2023-06-10T04:50:53;113.53;;;47.75;;
23586;SDS011;11971;51.148;4.104;2023-06-10T04:53:23;109.53;;;47.90;;
23586;SDS011;11971;51.148;4.104;2023-06-10T04:55:50;110.38;;;48.63;;
23586;SDS011;11971;51.148;4.104;2023-06-10T04:58:22;108.47;;;47.13;;
23586;SDS011;11971;51.148;4.104;2023-06-10T05:00:59;113.80;;;47.67;;
23586;SDS011;11971;51.148;4.104;2023-06-10T05:03:27;115.28;;;47.70;;
23586;SDS011;11971;51.148;4.104;2023-06-10T05:05:53;115.57;;;47.92;;
23586;SDS011;11971;51.148;4.104;2023-06-10T05:08:20;110.18;;;47.45;;
23586;SDS011;11971;51.148;4.104;2023-06-10T05:10:49;110.43;;;47.05;;
23586;SDS011;11971;51.148;4.104;2023-06-10T05:13:24;111.35;;;47.95;;
23586;SDS011;11971;51.148;4.104;2023-06-10T05:15:50;112.50;;;47.83;;
23586;SDS011;11971;51.148;4.104;2023-06-10T05:18:17;110.88;;;47.10;;
23586;SDS011;11971;51.148;4.104;2023-06-10T05:20:44;111.20;;;47.70;;
23586;SDS011;11971;51.148;4.104;2023-06-10T05:23:11;113.20;;;47.88;;
23586;SDS011;11971;51.148;4.104;2023-06-10T05:25:38;112.10;;;47.70;;
23586;SDS011;11971;51.148;4.104;2023-06-10T05:28:06;113.15;;;48.42;;
23586;SDS011;11971;51.148;4.104;2023-06-10T05:30:36;113.50;;;47.58;;
23586;SDS011;11971;51.148;4.104;2023-06-10T05:33:03;111.43;;;47.53;;
23586;SDS011;11971;51.148;4.104;2023-06-10T05:35:30;111.78;;;47.55;;
23586;SDS011;11971;51.148;4.104;2023-06-10T05:37:57;110.53;;;47.90;;
23586;SDS011;11971;51.148;4.104;2023-06-10T05:40:24;111.70;;;47.50;;
23586;SDS011;11971;51.148;4.104;2023-06-10T05:42:53;110.55;;;48.15;;
23586;SDS011;11971;51.148;4.104;2023-06-10T05:45:20;111.65;;;47.85;;
23586;SDS011;11971;51.148;4.104;2023-06-10T05:47:56;109.80;;;47.83;;
23586;SDS011;11971;51.148;4.104;2023-06-10T05:50:23;111.78;;;48.03;;
23586;SDS011;11971;51.148;4.104;2023-06-10T05:52:50;109.22;;;48.13;;
23586;SDS011;11971;51.148;4.104;2023-06-10T05:55:21;114.63;;;48.17;;
23586;SDS011;11971;51.148;4.104;2023-06-10T05:58:01;108.82;;;47.60;;
23586;SDS011;11971;51.148;4.104;2023-06-10T06:00:29;109.03;;;47.92;;
23586;SDS011;11971;51.148;4.104;2023-06-10T06:03:05;112.65;;;47.35;;
23586;SDS011;11971;51.148;4.104;2023-06-10T06:05:38;114.43;;;48.92;;
23586;SDS011;11971;51.148;4.104;2023-06-10T06:08:07;111.63;;;48.28;;
23586;SDS011;11971;51.148;4.104;2023-06-10T06:10:41;110.93;;;47.53;;
23586;SDS011;11971;51.148;4.104;2023-06-10T06:13:09;110.28;;;47.97;;
23586;SDS011;11971;51.148;4.104;2023-06-10T06:15:36;114.35;;;48.15;;
23586;SDS011;11971;51.148;4.104;2023-06-10T06:18:04;111.28;;;48.08;;
23586;SDS011;11971;51.148;4.104;2023-06-10T06:20:38;109.78;;;47.78;;
23586;SDS011;11971;51.148;4.104;2023-06-10T06:23:23;112.93;;;48.88;;
23586;SDS011;11971;51.148;4.104;2023-06-10T06:25:53;110.72;;;48.65;;
23586;SDS011;11971;51.148;4.104;2023-06-10T06:28:35;113.18;;;47.95;;
23586;SDS011;11971;51.148;4.104;2023-06-10T06:31:05;113.22;;;48.45;;
23586;SDS011;11971;51.148;4.104;2023-06-10T06:36:54;111.70;;;47.45;;
23586;SDS011;11971;51.148;4.104;2023-06-10T06:39:40;109.85;;;47.72;;
23586;SDS011;11971;51.148;4.104;2023-06-10T06:46:15;107.72;;;47.25;;
23586;SDS011;11971;51.148;4.104;2023-06-10T06:51:34;112.95;;;48.50;;
23586;SDS011;11971;51.148;4.104;2023-06-10T06:54:05;110.38;;;48.03;;
23586;SDS011;11971;51.148;4.104;2023-06-10T06:56:33;113.30;;;47.75;;
23586;SDS011;11971;51.148;4.104;2023-06-10T06:59:16;111.35;;;48.22;;
23586;SDS011;11971;51.148;4.104;2023-06-10T07:01:57;111.85;;;47.97;;
23586;SDS011;11971;51.148;4.104;2023-06-10T07:04:27;111.68;;;47.70;;
23586;SDS011;11971;51.148;4.104;2023-06-10T07:06:55;112.05;;;47.70;;
23586;SDS011;11971;51.148;4.104;2023-06-10T07:09:39;112.78;;;47.90;;
23586;SDS011;11971;51.148;4.104;2023-06-10T07:12:07;114.93;;;48.45;;
23586;SDS011;11971;51.148;4.104;2023-06-10T07:14:34;112.35;;;48.33;;
23586;SDS011;11971;51.148;4.104;2023-06-10T07:17:01;111.45;;;48.22;;
23586;SDS011;11971;51.148;4.104;2023-06-10T07:19:34;111.82;;;47.75;;
23586;SDS011;11971;51.148;4.104;2023-06-10T07:22:14;113.25;;;47.97;;
23586;SDS011;11971;51.148;4.104;2023-06-10T07:24:42;111.15;;;48.40;;
23586;SDS011;11971;51.148;4.104;2023-06-10T07:27:10;113.75;;;47.85;;
23586;SDS011;11971;51.148;4.104;2023-06-10T07:29:39;109.78;;;47.55;;
23586;SDS011;11971;51.148;4.104;2023-06-10T07:32:14;110.72;;;47.53;;
23586;SDS011;11971;51.148;4.104;2023-06-10T07:34:41;110.78;;;47.38;;
23586;SDS011;11971;51.148;4.104;2023-06-10T07:37:08;110.72;;;47.08;;
23586;SDS011;11971;51.148;4.104;2023-06-10T07:39:38;114.97;;;48.15;;
23586;SDS011;11971;51.148;4.104;2023-06-10T07:42:10;111.55;;;48.00;;
23586;SDS011;11971;51.148;4.104;2023-06-10T07:49:47;108.45;;;47.40;;
23586;SDS011;11971;51.148;4.104;2023-06-10T07:55:48;111.10;;;47.35;;
23586;SDS011;11971;51.148;4.104;2023-06-10T08:01:07;111.55;;;47.22;;
23586;SDS011;11971;51.148;4.104;2023-06-10T08:03:34;112.60;;;47.13;;
23586;SDS011;11971;51.148;4.104;2023-06-10T08:06:01;108.85;;;46.95;;
23586;SDS011;11971;51.148;4.104;2023-06-10T08:08:36;111.72;;;47.53;;
23586;SDS011;11971;51.148;4.104;2023-06-10T08:11:10;115.82;;;47.90;;
23586;SDS011;11971;51.148;4.104;2023-06-10T08:16:03;108.95;;;47.13;;
23586;SDS011;11971;51.148;4.104;2023-06-10T08:18:33;110.88;;;46.78;;
23586;SDS011;11971;51.148;4.104;2023-06-10T08:21:06;108.38;;;46.72;;
23586;SDS011;11971;51.148;4.104;2023-06-10T08:24:00;112.45;;;47.35;;
23586;SDS011;11971;51.148;4.104;2023-06-10T08:30:04;110.63;;;46.72;;
23586;SDS011;11971;51.148;4.104;2023-06-10T08:32:41;110.05;;;47.25;;
23586;SDS011;11971;51.148;4.104;2023-06-10T08:35:08;114.25;;;47.40;;
23586;SDS011;11971;51.148;4.104;2023-06-10T08:37:36;111.38;;;46.92;;
23586;SDS011;11971;51.148;4.104;2023-06-10T08:40:27;110.63;;;47.00;;
23586;SDS011;11971;51.148;4.104;2023-06-10T08:43:14;111.40;;;46.15;;
23586;SDS011;11971;51.148;4.104;2023-06-10T08:46:10;111.75;;;46.88;;
23586;SDS011;11971;51.148;4.104;2023-06-10T08:49:03;110.63;;;47.03;;
23586;SDS011;11971;51.148;4.104;2023-06-10T08:51:37;114.90;;;46.60;;
23586;SDS011;11971;51.148;4.104;2023-06-10T08:54:05;107.43;;;46.28;;
23586;SDS011;11971;51.148;4.104;2023-06-10T09:06:41;111.50;;;45.83;;
23586;SDS011;11971;51.148;4.104;2023-06-10T09:09:25;110.75;;;46.58;;
23586;SDS011;11971;51.148;4.104;2023-06-10T09:12:16;109.47;;;46.28;;
23586;SDS011;11971;51.148;4.104;2023-06-10T09:14:43;109.22;;;45.85;;
23586;SDS011;11971;51.148;4.104;2023-06-10T09:17:09;110.03;;;46.15;;
23586;SDS011;11971;51.148;4.104;2023-06-10T09:19:40;109.10;;;45.63;;
23586;SDS011;11971;51.148;4.104;2023-06-10T09:22:07;108.57;;;46.33;;
23586;SDS011;11971;51.148;4.104;2023-06-10T09:24:33;108.97;;;46.88;;
23586;SDS011;11971;51.148;4.104;2023-06-10T09:27:04;108.07;;;45.70;;
23586;SDS011;11971;51.148;4.104;2023-06-10T09:29:31;108.95;;;46.28;;
23586;SDS011;11971;51.148;4.104;2023-06-10T09:31:58;110.97;;;46.53;;
23586;SDS011;11971;51.148;4.104;2023-06-10T09:34:25;111.00;;;46.83;;
23586;SDS011;11971;51.148;4.104;2023-06-10T09:36:54;110.65;;;45.78;;
23586;SDS011;11971;51.148;4.104;2023-06-10T09:39:21;110.50;;;46.07;;
23586;SDS011;11971;51.148;4.104;2023-06-10T09:41:48;110.53;;;46.67;;
23586;SDS011;11971;51.148;4.104;2023-06-10T09:44:16;112.30;;;46.08;;
23586;SDS011;11971;51.148;4.104;2023-06-10T09:46:44;113.93;;;47.10;;
23586;SDS011;11971;51.148;4.104;2023-06-10T09:49:11;116.47;;;46.55;;
23586;SDS011;11971;51.148;4.104;2023-06-10T09:51:41;111.32;;;46.20;;
23586;SDS011;11971;51.148;4.104;2023-06-10T09:54:17;114.72;;;46.60;;
23586;SDS011;11971;51.148;4.104;2023-06-10T09:56:48;110.25;;;46.20;;
23586;SDS011;11971;51.148;4.104;2023-06-10T09:59:15;109.32;;;46.38;;
23586;SDS011;11971;51.148;4.104;2023-06-10T10:01:42;109.90;;;46.72;;
23586;SDS011;11971;51.148;4.104;2023-06-10T10:04:08;110.40;;;46.75;;
23586;SDS011;11971;51.148;4.104;2023-06-10T10:06:36;109.32;;;46.33;;
23586;SDS011;11971;51.148;4.104;2023-06-10T10:09:03;110.88;;;46.10;;
23586;SDS011;11971;51.148;4.104;2023-06-10T10:11:32;110.45;;;46.75;;
23586;SDS011;11971;51.148;4.104;2023-06-10T10:14:00;111.32;;;47.20;;
23586;SDS011;11971;51.148;4.104;2023-06-10T10:16:30;110.80;;;47.05;;
23586;SDS011;11971;51.148;4.104;2023-06-10T10:19:04;112.18;;;46.50;;
23586;SDS011;11971;51.148;4.104;2023-06-10T10:21:34;110.13;;;46.63;;
23586;SDS011;11971;51.148;4.104;2023-06-10T10:24:05;112.28;;;46.45;;
23586;SDS011;11971;51.148;4.104;2023-06-10T10:26:37;108.95;;;46.78;;
23586;SDS011;11971;51.148;4.104;2023-06-10T10:29:07;113.88;;;46.78;;
23586;SDS011;11971;51.148;4.104;2023-06-10T10:31:37;110.00;;;47.13;;
23586;SDS011;11971;51.148;4.104;2023-06-10T10:34:04;113.68;;;47.45;;
23586;SDS011;11971;51.148;4.104;2023-06-10T10:36:34;114.13;;;46.50;;
23586;SDS011;11971;51.148;4.104;2023-06-10T10:39:01;113.90;;;47.25;;
23586;SDS011;11971;51.148;4.104;2023-06-10T10:41:30;112.00;;;46.77;;
23586;SDS011;11971;51.148;4.104;2023-06-10T10:43:59;117.80;;;47.38;;
23586;SDS011;11971;51.148;4.104;2023-06-10T10:46:26;120.22;;;47.42;;
23586;SDS011;11971;51.148;4.104;2023-06-10T10:48:53;111.45;;;47.08;;
23586;SDS011;11971;51.148;4.104;2023-06-10T10:51:22;111.15;;;47.50;;
23586;SDS011;11971;51.148;4.104;2023-06-10T10:56:38;117.43;;;47.90;;
23586;SDS011;11971;51.148;4.104;2023-06-10T10:59:06;113.85;;;47.35;;
23586;SDS011;11971;51.148;4.104;2023-06-10T11:04:07;109.80;;;47.13;;
23586;SDS011;11971;51.148;4.104;2023-06-10T11:06:34;113.45;;;47.08;;
23586;SDS011;11971;51.148;4.104;2023-06-10T11:09:01;110.50;;;47.33;;
23586;SDS011;11971;51.148;4.104;2023-06-10T11:11:55;110.28;;;46.90;;
23586;SDS011;11971;51.148;4.104;2023-06-10T11:14:27;114.57;;;47.45;;
23586;SDS011;11971;51.148;4.104;2023-06-10T11:16:56;114.30;;;47.28;;
23586;SDS011;11971;51.148;4.104;2023-06-10T11:19:32;111.20;;;46.78;;
23586;SDS011;11971;51.148;4.104;2023-06-10T11:22:00;117.18;;;47.15;;
23586;SDS011;11971;51.148;4.104;2023-06-10T11:24:28;112.03;;;47.58;;
23586;SDS011;11971;51.148;4.104;2023-06-10T11:26:54;114.72;;;46.88;;
23586;SDS011;11971;51.148;4.104;2023-06-10T11:29:21;110.07;;;47.22;;
23586;SDS011;11971;51.148;4.104;2023-06-10T11:31:50;113.43;;;47.30;;
23586;SDS011;11971;51.148;4.104;2023-06-10T11:34:21;116.00;;;47.33;;
23586;SDS011;11971;51.148;4.104;2023-06-10T11:36:50;117.65;;;47.38;;
23586;SDS011;11971;51.148;4.104;2023-06-10T11:39:20;115.18;;;48.25;;
23586;SDS011;11971;51.148;4.104;2023-06-10T11:41:48;111.72;;;47.58;;
23586;SDS011;11971;51.148;4.104;2023-06-10T11:44:16;111.80;;;47.10;;
23586;SDS011;11971;51.148;4.104;2023-06-10T11:46:43;110.50;;;47.28;;
23586;SDS011;11971;51.148;4.104;2023-06-10T11:49:12;115.93;;;47.93;;
23586;SDS011;11971;51.148;4.104;2023-06-10T11:51:39;112.13;;;47.30;;
23586;SDS011;11971;51.148;4.104;2023-06-10T11:54:14;111.68;;;47.75;;
23586;SDS011;11971;51.148;4.104;2023-06-10T11:56:41;116.78;;;47.55;;
23586;SDS011;11971;51.148;4.104;2023-06-10T11:59:08;112.57;;;47.80;;
23586;SDS011;11971;51.148;4.104;2023-06-10T12:01:35;110.53;;;47.47;;
23586;SDS011;11971;51.148;4.104;2023-06-10T12:04:03;113.63;;;47.13;;
23586;SDS011;11971;51.148;4.104;2023-06-10T12:09:17;115.78;;;47.83;;
23586;SDS011;11971;51.148;4.104;2023-06-10T12:11:45;115.72;;;48.28;;
23586;SDS011;11971;51.148;4.104;2023-06-10T12:14:14;113.03;;;47.85;;
23586;SDS011;11971;51.148;4.104;2023-06-10T12:16:47;113.75;;;47.75;;
23586;SDS011;11971;51.148;4.104;2023-06-10T12:19:14;112.80;;;47.22;;
23586;SDS011;11971;51.148;4.104;2023-06-10T12:21:42;112.65;;;47.03;;
23586;SDS011;11971;51.148;4.104;2023-06-10T12:24:10;115.95;;;47.50;;
23586;SDS011;11971;51.148;4.104;2023-06-10T12:26:39;109.93;;;47.35;;
23586;SDS011;11971;51.148;4.104;2023-06-10T12:29:15;111.95;;;47.58;;
23586;SDS011;11971;51.148;4.104;2023-06-10T12:31:57;116.07;;;47.75;;
23586;SDS011;11971;51.148;4.104;2023-06-10T12:34:35;108.93;;;46.05;;
23586;SDS011;11971;51.148;4.104;2023-06-10T12:37:03;110.27;;;47.77;;
23586;SDS011;11971;51.148;4.104;2023-06-10T12:39:32;112.47;;;47.83;;
23586;SDS011;11971;51.148;4.104;2023-06-10T12:42:00;112.88;;;47.63;;
23586;SDS011;11971;51.148;4.104;2023-06-10T12:44:31;113.97;;;48.13;;
23586;SDS011;11971;51.148;4.104;2023-06-10T12:46:58;113.47;;;48.20;;
23586;SDS011;11971;51.148;4.104;2023-06-10T12:49:25;115.80;;;48.08;;
23586;SDS011;11971;51.148;4.104;2023-06-10T12:51:52;115.15;;;48.08;;
23586;SDS011;11971;51.148;4.104;2023-06-10T12:54:19;115.75;;;47.95;;
23586;SDS011;11971;51.148;4.104;2023-06-10T12:56:47;111.10;;;48.10;;
23586;SDS011;11971;51.148;4.104;2023-06-10T12:59:13;112.30;;;48.22;;
23586;SDS011;11971;51.148;4.104;2023-06-10T13:01:40;115.68;;;48.10;;
23586;SDS011;11971;51.148;4.104;2023-06-10T13:04:07;117.07;;;47.78;;
23586;SDS011;11971;51.148;4.104;2023-06-10T13:06:34;112.18;;;47.67;;
23586;SDS011;11971;51.148;4.104;2023-06-10T13:09:07;119.95;;;47.80;;
23586;SDS011;11971;51.148;4.104;2023-06-10T13:11:34;117.75;;;48.30;;
23586;SDS011;11971;51.148;4.104;2023-06-10T13:14:03;111.93;;;48.30;;
23586;SDS011;11971;51.148;4.104;2023-06-10T13:16:31;115.20;;;48.03;;
23586;SDS011;11971;51.148;4.104;2023-06-10T13:18:58;112.18;;;47.88;;
23586;SDS011;11971;51.148;4.104;2023-06-10T13:21:25;115.50;;;47.92;;
23586;SDS011;11971;51.148;4.104;2023-06-10T13:23:52;112.30;;;47.92;;
23586;SDS011;11971;51.148;4.104;2023-06-10T13:26:19;113.53;;;48.30;;
23586;SDS011;11971;51.148;4.104;2023-06-10T13:28:45;111.35;;;47.40;;
23586;SDS011;11971;51.148;4.104;2023-06-10T13:31:14;111.38;;;47.85;;
23586;SDS011;11971;51.148;4.104;2023-06-10T13:33:41;113.95;;;47.50;;
23586;SDS011;11971;51.148;4.104;2023-06-10T13:36:08;114.43;;;47.80;;
23586;SDS011;11971;51.148;4.104;2023-06-10T13:38:35;113.38;;;48.15;;
23586;SDS011;11971;51.148;4.104;2023-06-10T13:41:02;115.68;;;48.15;;
23586;SDS011;11971;51.148;4.104;2023-06-10T13:43:29;114.35;;;48.05;;
23586;SDS011;11971;51.148;4.104;2023-06-10T13:45:55;117.07;;;48.70;;
23586;SDS011;11971;51.148;4.104;2023-06-10T13:48:23;112.57;;;48.10;;
23586;SDS011;11971;51.148;4.104;2023-06-10T13:50:50;112.65;;;48.13;;
23586;SDS011;11971;51.148;4.104;2023-06-10T13:53:17;115.50;;;47.88;;
23586;SDS011;11971;51.148;4.104;2023-06-10T13:55:43;118.53;;;48.58;;
23586;SDS011;11971;51.148;4.104;2023-06-10T13:58:10;115.63;;;48.30;;
23586;SDS011;11971;51.148;4.104;2023-06-10T14:00:37;115.05;;;48.45;;
23586;SDS011;11971;51.148;4.104;2023-06-10T14:03:03;111.40;;;47.90;;
23586;SDS011;11971;51.148;4.104;2023-06-10T14:05:32;114.20;;;48.70;;
23586;SDS011;11971;51.148;4.104;2023-06-10T14:07:59;116.82;;;48.95;;
23586;SDS011;11971;51.148;4.104;2023-06-10T14:10:26;119.13;;;49.28;;
23586;SDS011;11971;51.148;4.104;2023-06-10T14:12:52;116.00;;;48.75;;
23586;SDS011;11971;51.148;4.104;2023-06-10T14:15:19;113.22;;;48.10;;
23586;SDS011;11971;51.148;4.104;2023-06-10T14:17:46;113.75;;;48.47;;
23586;SDS011;11971;51.148;4.104;2023-06-10T14:20:13;114.40;;;48.60;;
23586;SDS011;11971;51.148;4.104;2023-06-10T14:22:41;119.35;;;48.67;;
23586;SDS011;11971;51.148;4.104;2023-06-10T14:25:08;117.07;;;48.58;;
23586;SDS011;11971;51.148;4.104;2023-06-10T14:27:36;117.53;;;49.28;;
23586;SDS011;11971;51.148;4.104;2023-06-10T14:30:03;113.72;;;48.85;;
23586;SDS011;11971;51.148;4.104;2023-06-10T14:32:30;115.70;;;48.95;;
23586;SDS011;11971;51.148;4.104;2023-06-10T14:34:57;118.28;;;48.33;;
23586;SDS011;11971;51.148;4.104;2023-06-10T14:37:23;117.00;;;48.72;;
23586;SDS011;11971;51.148;4.104;2023-06-10T14:39:51;118.45;;;48.70;;
23586;SDS011;11971;51.148;4.104;2023-06-10T14:42:18;116.93;;;48.95;;
23586;SDS011;11971;51.148;4.104;2023-06-10T14:44:45;114.18;;;48.55;;
23586;SDS011;11971;51.148;4.104;2023-06-10T14:47:12;118.28;;;49.20;;
23586;SDS011;11971;51.148;4.104;2023-06-10T14:49:38;115.50;;;48.53;;
23586;SDS011;11971;51.148;4.104;2023-06-10T14:52:07;114.75;;;48.75;;
23586;SDS011;11971;51.148;4.104;2023-06-10T14:54:34;113.43;;;48.83;;
23586;SDS011;11971;51.148;4.104;2023-06-10T14:57:02;113.60;;;48.08;;
23586;SDS011;11971;51.148;4.104;2023-06-10T14:59:28;117.85;;;47.95;;
23586;SDS011;11971;51.148;4.104;2023-06-10T15:01:55;115.60;;;48.50;;
23586;SDS011;11971;51.148;4.104;2023-06-10T15:04:22;113.25;;;48.60;;
23586;SDS011;11971;51.148;4.104;2023-06-10T15:06:49;115.82;;;48.63;;
23586;SDS011;11971;51.148;4.104;2023-06-10T15:09:16;115.20;;;48.33;;
23586;SDS011;11971;51.148;4.104;2023-06-10T15:11:42;116.00;;;48.90;;
23586;SDS011;11971;51.148;4.104;2023-06-10T15:14:11;116.20;;;48.58;;
23586;SDS011;11971;51.148;4.104;2023-06-10T15:16:37;128.00;;;48.90;;
23586;SDS011;11971;51.148;4.104;2023-06-10T15:19:04;113.82;;;49.25;;
23586;SDS011;11971;51.148;4.104;2023-06-10T15:21:33;114.10;;;48.53;;
23586;SDS011;11971;51.148;4.104;2023-06-10T15:24:00;114.65;;;48.47;;
23586;SDS011;11971;51.148;4.104;2023-06-10T15:26:26;115.20;;;48.53;;